Time;durP1;ratioP1;P1;durP2;ratioP2;P2;SDS_P1;SDS_P2;PMS_P1;PMS_P2;Temp;Humidity;BMP_temperature;BMP_pressure;BME280_temperature;BME280_humidity;BME280_pressure;Samples;Min_cycle;Max_cycle;Signal;HPM_P1;HPM_P2
2021/01/23 00:01:41;;;;;;;25.30;12.90;;;;;;;7.05;72.57;97560.55;120090;1150;104364;-69
2021/01/23 00:04:08;;;;;;;23.30;12.03;;;;;;;7.06;72.60;97562.23;119947;1150;104500;-69
2021/01/23 00:06:35;;;;;;;25.00;11.90;;;;;;;7.05;72.26;97563.20;120088;1151;104981;-68
2021/01/23 00:09:02;;;;;;;26.73;13.77;;;;;;;7.04;72.55;97556.23;120023;1150;104370;-70
2021/01/23 00:11:29;;;;;;;29.87;13.17;;;;;;;7.05;73.04;97557.91;120008;1149;104487;-69
2021/01/23 00:13:56;;;;;;;23.43;11.73;;;;;;;7.06;72.40;97564.88;120050;1149;104460;-71
2021/01/23 00:16:24;;;;;;;23.37;12.63;;;;;;;7.08;72.42;97568.23;120176;1149;104417;-69
2021/01/23 00:18:51;;;;;;;22.17;11.73;;;;;;;7.10;72.96;97568.09;120128;1150;104554;-69
2021/01/23 00:21:18;;;;;;;24.37;13.20;;;;;;;7.09;73.00;97571.70;120033;1149;104373;-69
2021/01/23 00:23:45;;;;;;;23.40;13.00;;;;;;;7.11;72.51;97562.70;120091;1150;104348;-68
2021/01/23 00:26:12;;;;;;;23.27;11.50;;;;;;;7.13;72.37;97559.91;120070;1150;104465;-70
2021/01/23 00:28:39;;;;;;;27.45;12.40;;;;;;;7.13;72.45;97560.73;120016;1150;104420;-69
2021/01/23 00:31:06;;;;;;;26.40;11.93;;;;;;;7.12;73.13;97560.88;120082;1149;104527;-70
2021/01/23 00:33:33;;;;;;;24.23;11.70;;;;;;;7.11;73.12;97559.20;120108;1149;105070;-69
2021/01/23 00:36:00;;;;;;;24.43;11.70;;;;;;;7.10;72.95;97554.87;120032;1150;104559;-69
2021/01/23 00:38:27;;;;;;;25.32;12.85;;;;;;;7.06;72.40;97562.23;120014;1149;104378;-68
2021/01/23 00:40:54;;;;;;;22.57;12.13;;;;;;;7.06;73.11;97564.88;120048;1150;104501;-70
2021/01/23 00:43:21;;;;;;;23.15;11.80;;;;;;;7.05;72.42;97557.05;120036;1150;104387;-69
2021/01/23 00:45:48;;;;;;;23.10;12.55;;;;;;;7.00;73.04;97560.91;120030;1150;104399;-68
2021/01/23 00:48:15;;;;;;;23.10;11.67;;;;;;;6.96;72.43;97559.48;120097;1150;104409;-69
2021/01/23 00:50:43;;;;;;;25.23;12.93;;;;;;;6.93;72.51;97569.48;120204;1150;104366;-69
2021/01/23 00:53:10;;;;;;;24.85;13.85;;;;;;;6.91;73.20;97551.12;120111;1150;104514;-69
2021/01/23 00:55:37;;;;;;;25.67;13.63;;;;;;;6.90;72.55;97556.52;120167;1150;104336;-68
2021/01/23 00:58:04;;;;;;;24.17;11.97;;;;;;;6.89;72.66;97568.05;119955;1150;104460;-69
2021/01/23 01:00:32;;;;;;;24.83;12.47;;;;;;;6.90;73.25;97561.80;120244;1150;104360;-68
2021/01/23 01:02:59;;;;;;;27.02;14.07;;;;;;;6.89;73.00;97555.69;120035;1150;104959;-70
2021/01/23 01:05:26;;;;;;;25.82;11.90;;;;;;;6.91;72.80;97551.12;119909;1150;104548;-67
2021/01/23 01:07:53;;;;;;;22.60;11.25;;;;;;;6.93;72.91;97564.20;119971;1150;104768;-68
2021/01/23 01:10:20;;;;;;;24.53;12.93;;;;;;;6.95;73.57;97556.98;120079;1150;104372;-68
2021/01/23 01:12:47;;;;;;;24.27;11.97;;;;;;;6.97;73.05;97544.48;120162;1150;104419;-71
2021/01/23 01:15:14;;;;;;;25.90;14.20;;;;;;;6.99;72.75;97545.19;120068;1150;104514;-69
2021/01/23 01:17:41;;;;;;;28.40;13.77;;;;;;;6.99;73.33;97547.84;119991;1150;104471;-69
2021/01/23 01:20:09;;;;;;;24.67;12.63;;;;;;;6.98;72.98;97536.41;119988;1150;104466;-70
2021/01/23 01:22:37;;;;;;;22.80;11.27;;;;;;;6.99;73.00;97534.62;120062;1149;104472;-70
2021/01/23 01:25:06;;;;;;;24.13;12.17;;;;;;;7.00;72.68;97544.23;120017;1149;104465;-69
2021/01/23 01:27:34;;;;;;;24.80;12.70;;;;;;;7.00;72.82;97546.87;120229;1149;104377;-69
2021/01/23 01:30:01;;;;;;;21.97;12.07;;;;;;;6.99;72.75;97543.38;120083;1149;104339;-72
2021/01/23 01:32:28;;;;;;;22.57;11.63;;;;;;;6.99;73.43;97548.66;120067;1150;104476;-71
2021/01/23 01:34:55;;;;;;;24.33;12.27;;;;;;;6.99;72.70;97547.84;120075;1150;104457;-71
2021/01/23 01:37:22;;;;;;;23.70;12.70;;;;;;;7.00;73.13;97552.98;120021;1150;104508;-68
2021/01/23 01:39:49;;;;;;;23.32;13.05;;;;;;;7.04;72.71;97545.66;120073;1150;104369;-70
2021/01/23 01:42:16;;;;;;;24.23;12.77;;;;;;;7.05;73.12;97557.91;120145;1150;104413;-69
2021/01/23 01:44:43;;;;;;;24.70;12.83;;;;;;;7.07;73.49;97555.13;120068;1149;104393;-69
2021/01/23 01:47:10;;;;;;;27.40;12.57;;;;;;;7.09;73.41;97559.34;119992;1151;104475;-68
2021/01/23 01:49:37;;;;;;;26.33;12.53;;;;;;;7.11;73.33;97553.91;120002;1150;104362;-68
2021/01/23 01:52:04;;;;;;;23.03;12.33;;;;;;;7.13;72.97;97562.55;120025;1149;105087;-69
2021/01/23 01:54:31;;;;;;;24.13;12.90;;;;;;;7.15;72.80;97558.80;120045;1151;104426;-68
2021/01/23 01:56:58;;;;;;;21.87;11.60;;;;;;;7.20;72.77;97562.87;120121;1149;104387;-66
2021/01/23 01:59:25;;;;;;;22.10;12.10;;;;;;;7.22;73.11;97560.94;120122;1149;104505;-68
2021/01/23 02:02:03;;;;;;;20.60;11.08;;;;;;;7.24;73.32;97562.52;120242;1150;104416;-66
2021/01/23 02:04:42;;;;;;;24.97;13.03;;;;;;;7.26;72.94;97557.94;120137;1149;104478;-68
2021/01/23 02:07:45;;;;;;;24.30;12.27;;;;;;;7.27;73.23;97553.47;120101;1151;104449;-71
2021/01/23 02:11:03;;;;;;;23.03;11.73;;;;;;;7.27;73.51;97549.03;120103;1151;104463;-70
2021/01/23 02:13:36;;;;;;;22.47;11.20;;;;;;;7.25;73.40;97539.53;120020;1150;104367;-71
2021/01/23 02:16:09;;;;;;;23.80;12.33;;;;;;;7.25;72.90;97535.09;120168;1149;104366;-70
2021/01/23 02:18:54;;;;;;;21.47;10.90;;;;;;;7.26;73.22;97542.06;120183;1150;104413;-69
2021/01/23 02:21:40;;;;;;;22.20;10.10;;;;;;;7.25;73.43;97543.03;120108;1148;104480;-67
2021/01/23 02:24:09;;;;;;;26.30;10.50;;;;;;;7.23;73.48;97539.67;120047;1149;104695;-69
2021/01/23 02:26:44;;;;;;;22.40;10.93;;;;;;;7.22;73.52;97542.43;120584;1148;104382;-70
2021/01/23 02:29:21;;;;;;;22.67;11.17;;;;;;;7.19;72.96;97532.96;120150;1150;104337;-69
2021/01/23 02:32:00;;;;;;;21.20;11.23;;;;;;;7.19;72.86;97535.61;120097;1150;104451;-68
2021/01/23 02:34:29;;;;;;;22.73;11.73;;;;;;;7.17;72.83;97544.61;120768;1148;104443;-69
2021/01/23 02:36:59;;;;;;;21.70;10.13;;;;;;;7.14;73.42;97546.55;120065;1151;104453;-68
2021/01/23 02:39:29;;;;;;;22.50;10.75;;;;;;;7.12;73.41;97539.72;120181;1149;104440;-70
2021/01/23 02:41:57;;;;;;;21.23;10.50;;;;;;;7.09;73.07;97540.83;120068;1150;104428;-68
2021/01/23 02:44:24;;;;;;;22.33;11.07;;;;;;;7.07;73.35;97531.33;120102;1150;104451;-69
2021/01/23 02:46:54;;;;;;;23.25;11.90;;;;;;;7.05;72.86;97531.47;120011;1150;104548;-70
2021/01/23 02:49:23;;;;;;;21.37;10.77;;;;;;;7.04;73.54;97543.02;120611;1149;104462;-70
2021/01/23 02:52:11;;;;;;;20.73;10.27;;;;;;;7.03;73.51;97545.77;120041;1149;104446;-69
2021/01/23 02:54:55;;;;;;;22.63;9.80;;;;;;;7.02;73.37;97554.66;121204;1149;104426;-69
2021/01/23 02:57:26;;;;;;;20.17;10.50;;;;;;;7.03;72.79;97556.34;120044;1150;104922;-69
2021/01/23 02:59:58;;;;;;;21.45;10.30;;;;;;;7.03;73.42;97556.34;120984;1150;104326;-69
2021/01/23 03:02:27;;;;;;;21.23;9.70;;;;;;;7.03;72.83;97554.55;120067;1150;104474;-67
2021/01/23 03:04:58;;;;;;;19.90;9.80;;;;;;;7.02;73.08;97554.66;120069;1149;104439;-66
2021/01/23 03:07:25;;;;;;;20.27;9.43;;;;;;;7.01;72.98;97556.48;120122;1150;104348;-69
2021/01/23 03:09:52;;;;;;;22.20;10.53;;;;;;;6.99;73.48;97561.87;120065;1150;104441;-68
2021/01/23 03:12:19;;;;;;;18.87;8.77;;;;;;;6.99;73.20;97558.41;120109;1150;104355;-70
2021/01/23 03:14:47;;;;;;;20.87;10.20;;;;;;;6.98;73.50;97562.02;120058;1150;104524;-69
2021/01/23 03:17:14;;;;;;;20.80;9.60;;;;;;;6.95;73.47;97560.45;120180;1151;104491;-71
2021/01/23 03:19:41;;;;;;;19.20;9.87;;;;;;;6.92;73.25;97559.88;120158;1150;104905;-70
2021/01/23 03:22:08;;;;;;;19.67;9.70;;;;;;;6.90;72.83;97560.02;120155;1150;104494;-70
2021/01/23 03:24:35;;;;;;;23.00;10.37;;;;;;;6.89;73.26;97560.98;120218;1150;104337;-66
2021/01/23 03:27:03;;;;;;;21.80;10.53;;;;;;;6.89;73.23;97560.98;120135;1149;104421;-70
2021/01/23 03:29:30;;;;;;;20.57;9.93;;;;;;;6.88;72.93;97556.66;120582;1149;104452;-69
2021/01/23 03:31:58;;;;;;;18.73;9.27;;;;;;;6.85;72.78;97555.09;120113;1151;104442;-70
2021/01/23 03:34:25;;;;;;;20.90;9.37;;;;;;;6.82;73.53;97555.34;120133;1151;104363;-69
2021/01/23 03:36:52;;;;;;;20.97;9.63;;;;;;;6.82;73.58;97555.34;120135;1150;104951;-69
2021/01/23 03:39:19;;;;;;;23.05;10.50;;;;;;;6.80;73.25;97554.62;120148;1150;104417;-70
2021/01/23 03:41:46;;;;;;;22.87;9.60;;;;;;;6.80;72.85;97557.27;120127;1150;104492;-70
2021/01/23 03:44:13;;;;;;;19.97;10.37;;;;;;;6.78;73.47;97555.72;120186;1150;104497;-70
2021/01/23 03:46:40;;;;;;;23.43;9.87;;;;;;;6.75;72.72;97556.79;120061;1151;104432;-69
2021/01/23 03:49:07;;;;;;;22.23;10.70;;;;;;;6.73;72.41;97552.61;120106;1150;104439;-71
2021/01/23 03:51:34;;;;;;;20.90;9.73;;;;;;;6.71;73.11;97550.11;120113;1150;106030;-70
2021/01/23 03:54:01;;;;;;;19.57;9.13;;;;;;;6.69;73.16;97557.31;120057;1150;104872;-70
2021/01/23 03:56:31;;;;;;;22.47;10.50;;;;;;;6.68;72.73;97555.64;120102;1151;104410;-70
2021/01/23 03:58:58;;;;;;;19.37;9.33;;;;;;;6.66;73.47;97555.75;120124;1151;104461;-69
2021/01/23 04:01:25;;;;;;;20.43;9.38;;;;;;;6.64;73.30;97565.59;120044;1150;104387;-69
2021/01/23 04:03:52;;;;;;;21.47;9.13;;;;;;;6.63;73.45;97550.70;120072;1150;104470;-69
2021/01/23 04:06:19;;;;;;;22.77;9.90;;;;;;;6.63;73.45;97534.03;120119;1150;104358;-69
2021/01/23 04:08:46;;;;;;;22.27;9.43;;;;;;;6.60;73.41;97540.39;120162;1150;104441;-69
2021/01/23 04:11:13;;;;;;;19.03;8.60;;;;;;;6.58;72.97;97542.31;120077;1151;104438;-69
2021/01/23 04:13:40;;;;;;;22.77;9.80;;;;;;;6.57;73.52;97535.34;120152;1150;104396;-69
2021/01/23 04:16:07;;;;;;;20.77;8.97;;;;;;;6.55;72.93;97532.84;120012;1150;104404;-70
2021/01/23 04:18:34;;;;;;;20.43;9.43;;;;;;;6.55;73.46;97527.56;120037;1150;104521;-70
2021/01/23 04:21:02;;;;;;;22.60;8.90;;;;;;;6.55;72.82;97537.27;120011;1149;104450;-70
2021/01/23 04:23:29;;;;;;;20.73;10.03;;;;;;;6.56;73.51;97533.67;120062;1150;104374;-69
2021/01/23 04:25:56;;;;;;;20.00;9.93;;;;;;;6.57;72.88;97537.98;120084;1150;106269;-68
2021/01/23 04:28:23;;;;;;;19.27;9.33;;;;;;;6.58;73.11;97533.56;120041;1151;104407;-69
2021/01/23 04:30:50;;;;;;;18.57;8.33;;;;;;;6.56;73.09;97525.74;120138;1149;104380;-68
2021/01/23 04:33:17;;;;;;;21.25;8.95;;;;;;;6.58;73.15;97518.53;120114;1149;104628;-69
2021/01/23 04:35:45;;;;;;;18.13;9.33;;;;;;;6.58;72.94;97513.25;120023;1149;104506;-69
2021/01/23 04:38:12;;;;;;;19.13;9.20;;;;;;;6.58;73.48;97512.42;120054;1150;104449;-69
2021/01/23 04:40:40;;;;;;;20.90;10.13;;;;;;;6.55;72.82;97503.78;120368;1149;105383;-68
2021/01/23 04:43:09;;;;;;;21.53;9.70;;;;;;;6.53;72.78;97503.06;120058;1150;104591;-69
2021/01/23 04:45:36;;;;;;;21.60;9.50;;;;;;;6.49;72.75;97503.45;120032;1150;104369;-68
2021/01/23 04:48:04;;;;;;;21.10;9.03;;;;;;;6.46;72.67;97508.98;121168;1148;104485;-69
2021/01/23 04:50:32;;;;;;;20.77;9.23;;;;;;;6.41;73.11;97511.97;120611;1148;104359;-70
2021/01/23 04:52:59;;;;;;;20.30;8.97;;;;;;;6.39;73.06;97514.76;120091;1150;104469;-69
2021/01/23 04:55:26;;;;;;;21.27;9.43;;;;;;;6.38;73.50;97506.94;120066;1150;104352;-70
2021/01/23 04:57:53;;;;;;;21.37;9.67;;;;;;;6.37;72.80;97505.26;119977;1150;104348;-69
2021/01/23 05:00:21;;;;;;;21.70;10.03;;;;;;;6.37;72.78;97505.26;120115;1149;104407;-71
2021/01/23 05:03:05;;;;;;;20.43;8.90;;;;;;;6.38;73.52;97513.08;120184;1149;104500;-70
2021/01/23 05:05:34;;;;;;;21.90;9.43;;;;;;;6.36;72.75;97507.08;120125;1150;104436;-71
2021/01/23 05:08:10;;;;;;;19.17;8.57;;;;;;;6.35;73.55;97507.19;120062;1150;104467;-70
2021/01/23 05:10:38;;;;;;;19.50;8.90;;;;;;;6.36;72.97;97519.42;120941;1149;104444;-71
2021/01/23 05:13:17;;;;;;;20.77;8.47;;;;;;;6.37;73.50;97515.83;120032;1150;104434;-72
2021/01/23 05:15:46;;;;;;;21.03;8.47;;;;;;;6.35;72.75;97508.04;120042;1150;104410;-70
2021/01/23 05:18:14;;;;;;;19.35;8.55;;;;;;;6.32;72.67;97510.06;120069;1151;104362;-69
2021/01/23 05:20:43;;;;;;;19.33;9.47;;;;;;;6.25;73.20;97500.02;121083;1148;102727;-69
2021/01/23 05:23:17;;;;;;;20.77;8.57;;;;;;;6.21;73.38;97501.23;120026;1149;104406;-70
2021/01/23 05:25:47;;;;;;;;;;;;;;;6.16;73.34;97494.62;120160;1150;104431;-68
2021/01/23 05:28:28;;;;;;;18.77;8.53;;;;;;;6.10;72.77;97498.59;120034;1150;104815;-72
2021/01/23 05:30:56;;;;;;;26.37;10.63;;;;;;;6.06;72.76;97491.88;120045;1149;104461;-70
2021/01/23 05:33:34;;;;;;;21.97;9.57;;;;;;;6.04;72.80;97475.33;120641;1149;104493;-69
2021/01/23 05:36:08;;;;;;;21.00;8.90;;;;;;;6.02;72.82;97486.02;120086;1149;104479;-67
2021/01/23 05:38:41;;;;;;;25.40;9.27;;;;;;;6.04;73.35;97481.45;120041;1150;104342;-69
2021/01/23 05:41:08;;;;;;;19.30;8.55;;;;;;;6.08;73.63;97487.32;120122;1150;104418;-69
2021/01/23 05:43:41;;;;;;;20.20;8.03;;;;;;;6.14;73.64;97483.34;120123;1149;104436;-67
2021/01/23 05:46:13;;;;;;;18.40;8.13;;;;;;;6.17;73.42;97481.31;120050;1150;106088;-70
2021/01/23 05:48:43;;;;;;;18.60;8.10;;;;;;;6.23;73.03;97499.31;120047;1149;104805;-70
2021/01/23 05:51:11;;;;;;;19.07;8.03;;;;;;;6.29;73.61;97490.05;120054;1149;104369;-70
2021/01/23 05:53:39;;;;;;;18.67;7.53;;;;;;;6.33;73.63;97483.55;120181;1149;104410;-70
2021/01/23 05:56:07;;;;;;;19.10;7.80;;;;;;;6.37;73.70;97484.98;120116;1150;104344;-69
2021/01/23 05:58:36;;;;;;;20.53;8.27;;;;;;;6.42;73.70;97481.96;120453;1149;104335;-70
2021/01/23 06:01:14;;;;;;;19.15;7.90;;;;;;;6.46;72.95;97487.85;120048;1149;104368;-70
2021/01/23 06:03:44;;;;;;;17.57;7.53;;;;;;;6.50;73.70;97486.64;120859;1149;104336;-68
2021/01/23 06:06:12;;;;;;;18.50;7.10;;;;;;;6.53;73.01;97484.58;120348;1150;104597;-69
2021/01/23 06:08:40;;;;;;;17.87;8.37;;;;;;;6.57;73.35;97487.80;120104;1151;104422;-69
2021/01/23 06:11:29;;;;;;;17.70;6.67;;;;;;;6.59;72.95;97470.02;120126;1150;104445;-68
2021/01/23 06:13:57;;;;;;;19.33;7.40;;;;;;;6.62;73.68;97482.16;120124;1151;104339;-69
2021/01/23 06:16:33;;;;;;;18.17;7.63;;;;;;;6.66;73.02;97480.94;120078;1150;104439;-70
2021/01/23 06:19:13;;;;;;;17.20;6.80;;;;;;;6.69;73.66;97481.52;120076;1151;104380;-69
2021/01/23 06:21:43;;;;;;;13.90;6.40;;;;;;;6.71;72.99;97484.05;120080;1149;104447;-68
2021/01/23 06:24:15;;;;;;;18.43;7.50;;;;;;;6.74;72.96;97491.69;120085;1149;104364;-66
2021/01/23 06:26:54;;;;;;;17.43;7.23;;;;;;;6.75;72.88;97488.08;120058;1150;104348;-69
2021/01/23 06:29:39;;;;;;;17.53;7.57;;;;;;;6.78;73.31;97497.58;120172;1150;104345;-68
2021/01/23 06:32:28;;;;;;;18.57;6.90;;;;;;;6.80;72.94;97488.55;120057;1149;104614;-69
2021/01/23 06:34:57;;;;;;;17.53;6.97;;;;;;;6.82;72.97;97493.72;120040;1149;104363;-66
2021/01/23 06:37:37;;;;;;;17.53;7.67;;;;;;;6.85;72.91;97494.30;120109;1151;104602;-67
2021/01/23 06:40:22;;;;;;;17.30;6.50;;;;;;;6.87;72.93;97491.55;120312;1149;104812;-71
2021/01/23 06:42:51;;;;;;;16.83;7.17;;;;;;;6.92;72.93;97492.00;120063;1149;104833;-68
2021/01/23 06:45:34;;;;;;;17.40;6.57;;;;;;;6.95;73.29;97486.43;120068;1151;104371;-67
2021/01/23 06:48:01;;;;;;;19.67;7.53;;;;;;;6.98;73.56;97485.36;120089;1149;104438;-72
2021/01/23 06:50:44;;;;;;;16.30;7.10;;;;;;;7.00;73.57;97473.67;120116;1149;104451;-68
2021/01/23 06:53:16;;;;;;;17.42;6.55;;;;;;;7.03;73.51;97475.23;120065;1150;104444;-68
2021/01/23 06:55:44;;;;;;;18.40;6.87;;;;;;;7.05;73.04;97465.38;120076;1150;104524;-67
2021/01/23 06:58:13;;;;;;;20.40;7.20;;;;;;;7.08;73.29;97459.83;120053;1149;104447;-67
2021/01/23 07:00:41;;;;;;;17.50;7.10;;;;;;;7.12;72.88;97463.05;120112;1151;104442;-69
2021/01/23 07:03:13;;;;;;;14.80;6.70;;;;;;;7.15;72.99;97471.54;120117;1149;104492;-70
2021/01/23 07:05:47;;;;;;;16.03;6.53;;;;;;;7.20;73.37;97478.25;120463;1148;104848;-69
2021/01/23 07:08:20;;;;;;;17.73;6.43;;;;;;;7.25;73.42;97474.27;119973;1149;104441;-69
2021/01/23 07:11:17;;;;;;;16.47;6.57;;;;;;;7.28;73.24;97465.22;119971;1150;104443;-69
2021/01/23 07:14:01;;;;;;;15.60;6.07;;;;;;;7.31;72.80;97459.67;119942;1151;104447;-69
2021/01/23 07:16:32;;;;;;;15.87;5.43;;;;;;;7.33;72.97;97468.32;119969;1150;104374;-68
2021/01/23 07:19:01;;;;;;;15.23;6.30;;;;;;;7.36;72.72;97460.12;119991;1150;104441;-68
2021/01/23 07:21:32;;;;;;;12.93;5.30;;;;;;;7.39;73.03;97466.95;120689;1149;104365;-68
2021/01/23 07:24:00;;;;;;;17.53;6.90;;;;;;;7.42;73.02;97470.19;120020;1149;104459;-68
2021/01/23 07:26:28;;;;;;;18.77;6.30;;;;;;;7.45;73.42;97469.92;120365;1149;104441;-66
2021/01/23 07:28:56;;;;;;;15.37;6.10;;;;;;;7.48;72.98;97466.17;120103;1149;104461;-65
2021/01/23 07:31:26;;;;;;;19.80;6.53;;;;;;;7.53;72.93;97460.50;120026;1149;104362;-66
2021/01/23 07:33:54;;;;;;;19.63;6.87;;;;;;;7.56;72.99;97453.13;119993;1150;104412;-65
2021/01/23 07:36:31;;;;;;;21.03;8.20;;;;;;;7.60;73.17;97461.63;120178;1148;104870;-70
2021/01/23 07:38:59;;;;;;;18.25;6.00;;;;;;;7.63;73.19;97457.89;120048;1150;104351;-69
2021/01/23 07:41:31;;;;;;;17.93;6.27;;;;;;;7.66;72.71;97447.86;120115;1148;104413;-68
2021/01/23 07:44:01;;;;;;;16.00;6.00;;;;;;;7.70;72.85;97453.75;119974;1150;104351;-68
2021/01/23 07:46:40;;;;;;;11.83;5.00;;;;;;;7.73;73.22;97451.66;120027;1149;104374;-68
2021/01/23 07:49:09;;;;;;;15.47;6.00;;;;;;;7.77;73.16;97454.86;121189;1149;104410;-67
2021/01/23 07:51:36;;;;;;;14.50;5.50;;;;;;;7.81;72.85;97456.27;119993;1149;104340;-69
2021/01/23 07:54:08;;;;;;;14.35;5.45;;;;;;;7.84;72.64;97447.24;119918;1149;104476;-68
2021/01/23 07:56:36;;;;;;;12.53;5.20;;;;;;;7.89;72.51;97452.98;119937;1149;104465;-68
2021/01/23 07:59:04;;;;;;;12.87;4.80;;;;;;;7.93;72.45;97446.45;119970;1150;104469;-68
2021/01/23 08:01:31;;;;;;;17.10;5.67;;;;;;;7.97;73.01;97447.00;120007;1149;104338;-69
2021/01/23 08:03:58;;;;;;;15.25;5.45;;;;;;;8.00;72.59;97444.91;120004;1149;104389;-69
2021/01/23 08:06:26;;;;;;;13.10;5.67;;;;;;;8.02;72.57;97452.73;119959;1150;104485;-69
2021/01/23 08:08:53;;;;;;;16.67;5.17;;;;;;;8.08;72.87;97446.04;120010;1149;104364;-67
2021/01/23 08:11:41;;;;;;;16.50;6.67;;;;;;;8.16;72.99;97448.86;120102;1149;104372;-75
2021/01/23 08:14:11;;;;;;;18.57;5.70;;;;;;;8.22;72.40;97442.16;119982;1150;104442;-68
2021/01/23 08:16:54;;;;;;;15.60;5.23;;;;;;;8.28;72.61;97445.13;120089;1149;104345;-71
2021/01/23 08:19:21;;;;;;;17.77;6.43;;;;;;;8.31;72.41;97436.91;119978;1150;104448;-70
2021/01/23 08:22:08;;;;;;;13.87;4.90;;;;;;;8.30;72.61;97444.97;119920;1149;104433;-71
2021/01/23 08:24:35;;;;;;;15.43;5.10;;;;;;;8.30;72.57;97445.83;122200;1148;102247;-71
2021/01/23 08:27:19;;;;;;;13.17;5.13;;;;;;;8.32;72.49;97457.13;122165;1148;102057;-71
2021/01/23 08:29:52;;;;;;;14.63;4.85;;;;;;;8.34;72.61;97455.17;122206;1148;103351;-70
2021/01/23 08:32:19;;;;;;;10.73;4.37;;;;;;;8.37;72.23;97455.84;122149;1148;103111;-72
2021/01/23 08:34:46;;;;;;;14.33;5.23;;;;;;;8.38;72.38;97458.38;121699;1148;104343;-71
2021/01/23 08:37:13;;;;;;;13.30;5.40;;;;;;;8.40;72.23;97456.42;119966;1149;104410;-71
2021/01/23 08:39:48;;;;;;;16.80;5.03;;;;;;;8.41;72.16;97452.80;120138;1150;104483;-71
2021/01/23 08:42:17;;;;;;;13.93;4.63;;;;;;;8.43;72.23;97457.95;120197;1150;104414;-69
2021/01/23 08:44:44;;;;;;;12.53;5.07;;;;;;;8.44;72.23;97460.48;120179;1150;104413;-69
2021/01/23 08:47:11;;;;;;;14.80;4.90;;;;;;;8.45;71.86;97462.16;120183;1150;104361;-70
2021/01/23 08:49:38;;;;;;;13.00;4.70;;;;;;;8.45;72.12;97470.10;120188;1149;104458;-70
2021/01/23 08:52:06;;;;;;;14.73;5.43;;;;;;;8.47;72.08;97468.16;120172;1149;104403;-71
2021/01/23 08:54:33;;;;;;;15.83;5.90;;;;;;;8.48;72.10;97474.27;120186;1149;104339;-73
2021/01/23 08:57:00;;;;;;;15.35;5.65;;;;;;;8.49;72.07;97473.33;120155;1150;104487;-71
2021/01/23 08:59:28;;;;;;;16.10;5.30;;;;;;;8.50;72.20;97477.66;120124;1149;104411;-70
2021/01/23 09:01:54;;;;;;;13.87;5.40;;;;;;;8.49;71.94;97482.14;120228;1150;104361;-71
2021/01/23 09:04:22;;;;;;;12.33;4.83;;;;;;;8.49;71.77;97478.63;120132;1150;104400;-69
2021/01/23 09:06:49;;;;;;;22.67;5.20;;;;;;;8.51;72.27;97474.03;120176;1150;104371;-70
2021/01/23 09:09:16;;;;;;;17.57;5.40;;;;;;;8.54;71.81;97470.29;120234;1149;104479;-70
2021/01/23 09:11:43;;;;;;;15.13;5.30;;;;;;;8.54;71.47;97479.06;120162;1150;104421;-72
2021/01/23 09:14:10;;;;;;;14.57;5.40;;;;;;;8.56;71.71;97473.64;120164;1150;104362;-72
2021/01/23 09:16:37;;;;;;;15.30;5.73;;;;;;;8.57;71.89;97477.93;120168;1149;104442;-71
2021/01/23 09:19:05;;;;;;;12.20;4.67;;;;;;;8.58;71.96;97464.56;120218;1149;104492;-71
2021/01/23 09:21:31;;;;;;;14.97;4.77;;;;;;;8.60;72.09;97467.91;120117;1150;104346;-71
2021/01/23 09:23:58;;;;;;;12.95;4.70;;;;;;;8.62;71.61;97471.27;120178;1149;104339;-69
2021/01/23 09:26:25;;;;;;;12.50;4.75;;;;;;;8.64;71.55;97465.81;120212;1149;104404;-71
2021/01/23 09:28:52;;;;;;;11.67;4.47;;;;;;;8.67;71.60;97464.71;120138;1150;104412;-70
2021/01/23 09:31:19;;;;;;;14.15;5.20;;;;;;;8.70;71.35;97461.78;120127;1149;104420;-71
2021/01/23 09:33:48;;;;;;;14.93;5.30;;;;;;;8.72;71.68;97465.13;120195;1150;104364;-71
2021/01/23 09:36:15;;;;;;;15.13;5.23;;;;;;;8.73;71.74;97472.94;120216;1151;104436;-71
2021/01/23 09:38:42;;;;;;;13.93;4.50;;;;;;;8.73;71.43;97467.62;120212;1149;104914;-72
2021/01/23 09:41:11;;;;;;;12.03;4.37;;;;;;;8.75;71.34;97462.20;120140;1149;104482;-71
2021/01/23 09:43:38;;;;;;;18.70;4.90;;;;;;;8.76;71.29;97472.66;120125;1149;104397;-71
2021/01/23 09:46:05;;;;;;;15.58;4.95;;;;;;;8.78;71.11;97476.00;120088;1149;104372;-72
2021/01/23 09:48:33;;;;;;;14.13;5.10;;;;;;;8.79;71.20;97477.68;120064;1149;104338;-71
2021/01/23 09:51:00;;;;;;;13.13;4.37;;;;;;;8.82;71.04;97473.90;120095;1150;104371;-71
2021/01/23 09:53:27;;;;;;;17.20;5.00;;;;;;;8.86;71.17;97469.17;120145;1150;104580;-70
2021/01/23 09:55:54;;;;;;;15.30;4.72;;;;;;;8.88;71.19;97453.97;120065;1150;104861;-70
2021/01/23 09:58:21;;;;;;;13.67;5.23;;;;;;;8.88;71.09;97457.44;120162;1150;104361;-71
2021/01/23 10:00:49;;;;;;;13.90;5.50;;;;;;;8.89;71.03;97455.64;120264;1149;104367;-70
2021/01/23 10:03:16;;;;;;;12.30;4.60;;;;;;;8.91;71.09;97448.37;120178;1149;104955;-70
2021/01/23 10:05:44;;;;;;;13.30;4.37;;;;;;;8.95;70.93;97441.82;120137;1149;104404;-70
2021/01/23 10:08:11;;;;;;;15.37;4.93;;;;;;;8.97;70.83;97461.05;120141;1150;104442;-70
2021/01/23 10:10:38;;;;;;;15.13;4.53;;;;;;;8.99;70.85;97443.19;120183;1149;104437;-69
2021/01/23 10:13:05;;;;;;;13.55;4.15;;;;;;;9.01;70.90;97443.88;120211;1150;104571;-71
2021/01/23 10:15:33;;;;;;;15.20;4.83;;;;;;;9.03;70.78;97438.45;120201;1150;104371;-71
2021/01/23 10:18:01;;;;;;;13.00;4.70;;;;;;;9.07;70.86;97448.63;120141;1150;104451;-71
2021/01/23 10:20:29;;;;;;;12.93;4.67;;;;;;;9.07;70.49;97445.97;120191;1150;104407;-73
2021/01/23 10:22:56;;;;;;;13.13;4.63;;;;;;;9.10;70.51;97447.52;120193;1150;104378;-70
2021/01/23 10:25:23;;;;;;;11.45;4.85;;;;;;;9.09;70.41;97449.31;120157;1150;104438;-71
2021/01/23 10:27:50;;;;;;;13.17;4.80;;;;;;;9.12;70.45;97440.25;120120;1149;104927;-72
2021/01/23 10:30:18;;;;;;;14.03;4.87;;;;;;;9.15;70.57;97450.58;120157;1150;104436;-72
2021/01/23 10:32:46;;;;;;;12.27;4.63;;;;;;;9.20;70.37;97447.48;120279;1150;104425;-74
2021/01/23 10:35:13;;;;;;;16.50;5.97;;;;;;;9.23;70.41;97445.38;120167;1151;104433;-73
2021/01/23 10:37:40;;;;;;;17.07;5.47;;;;;;;9.25;70.30;97445.25;120215;1150;104332;-71
2021/01/23 10:40:08;;;;;;;13.90;4.70;;;;;;;9.30;70.26;97448.31;120178;1150;104470;-72
2021/01/23 10:42:35;;;;;;;12.13;4.93;;;;;;;9.32;70.08;97441.05;120206;1149;104438;-71
2021/01/23 10:45:04;;;;;;;11.67;4.63;;;;;;;9.37;69.93;97438.77;120149;1150;104444;-73
2021/01/23 10:47:32;;;;;;;13.60;5.10;;;;;;;9.41;70.13;97436.69;120148;1150;104487;-71
2021/01/23 10:49:59;;;;;;;13.40;5.00;;;;;;;9.44;69.99;97441.70;119964;1149;104402;-73
2021/01/23 10:52:27;;;;;;;17.33;5.00;;;;;;;9.48;69.91;97440.44;120161;1149;104538;-70
2021/01/23 10:54:54;;;;;;;15.68;4.65;;;;;;;9.53;70.05;97443.50;120173;1149;104347;-76
2021/01/23 10:57:21;;;;;;;16.43;5.60;;;;;;;9.58;70.26;97434.27;120159;1150;104378;-68
2021/01/23 10:59:49;;;;;;;14.40;4.63;;;;;;;9.63;69.93;97421.36;120156;1149;104463;-71
2021/01/23 11:02:15;;;;;;;15.98;4.92;;;;;;;9.70;70.03;97429.60;120182;1150;104383;-72
2021/01/23 11:04:43;;;;;;;15.73;5.33;;;;;;;9.72;69.77;97409.87;120179;1149;104551;-69
2021/01/23 11:07:10;;;;;;;13.43;5.13;;;;;;;9.76;69.73;97400.63;120168;1149;104349;-69
2021/01/23 11:09:37;;;;;;;14.10;4.80;;;;;;;9.83;69.53;97398.21;120177;1149;104338;-73
2021/01/23 11:12:05;;;;;;;12.57;4.40;;;;;;;9.90;69.72;97398.47;120164;1150;104513;-72
2021/01/23 11:14:33;;;;;;;15.80;5.33;;;;;;;9.93;69.35;97399.00;120172;1150;104818;-74
2021/01/23 11:17:02;;;;;;;17.87;5.67;;;;;;;9.97;69.58;97387.09;120102;1150;104500;-75
2021/01/23 11:19:29;;;;;;;15.95;4.70;;;;;;;10.01;69.16;97386.80;120154;1149;104438;-74
2021/01/23 11:21:56;;;;;;;13.77;4.23;;;;;;;10.06;69.10;97379.22;120051;1149;104398;-76
2021/01/23 11:24:28;;;;;;;13.37;4.90;;;;;;;10.10;68.75;97372.63;120109;1150;104339;-74
2021/01/23 11:26:56;;;;;;;12.97;4.97;;;;;;;10.12;68.57;97365.34;120099;1150;104438;-72